createdAt,value
2023-05-05T00:00:19.487Z,27.70
2023-05-05T00:01:19.506Z,27.66
2023-05-05T00:02:19.608Z,27.66
2023-05-05T00:03:19.693Z,27.62
2023-05-05T00:04:19.681Z,27.68
2023-05-05T00:05:19.695Z,27.65
2023-05-05T00:06:19.736Z,27.70
2023-05-05T00:07:19.778Z,27.70
2023-05-05T00:08:19.814Z,27.66
2023-05-05T00:09:19.868Z,27.65
2023-05-05T00:10:19.894Z,27.64
2023-05-05T00:11:19.931Z,27.62
2023-05-05T00:12:19.996Z,27.70
2023-05-05T00:13:20.041Z,27.68
2023-05-05T00:14:20.065Z,27.70
2023-05-05T00:15:20.139Z,27.69
2023-05-05T00:16:20.282Z,27.64
2023-05-05T00:17:20.252Z,27.72
2023-05-05T00:18:20.291Z,27.69
2023-05-05T00:19:20.370Z,27.69
2023-05-05T00:20:20.391Z,27.73
2023-05-05T00:21:20.457Z,27.74
2023-05-05T00:22:20.490Z,27.68
2023-05-05T00:23:20.560Z,27.76
2023-05-05T00:24:20.588Z,27.70
2023-05-05T00:25:20.631Z,27.76
2023-05-05T00:26:20.698Z,27.74
2023-05-05T00:27:20.733Z,27.70
2023-05-05T00:28:20.785Z,27.74
2023-05-05T00:29:20.850Z,27.73
2023-05-05T00:30:20.875Z,27.73
2023-05-05T00:31:20.963Z,27.75
2023-05-05T00:32:20.978Z,27.76
2023-05-05T00:33:20.998Z,27.78
2023-05-05T00:34:21.070Z,27.71
2023-05-05T00:35:21.116Z,27.78
2023-05-05T00:36:21.132Z,27.75
2023-05-05T00:37:21.204Z,27.79
2023-05-05T00:38:21.238Z,27.76
2023-05-05T00:39:21.296Z,27.79
2023-05-05T00:40:21.317Z,27.78
2023-05-05T00:41:21.360Z,27.80
2023-05-05T00:42:21.438Z,27.76
2023-05-05T00:43:21.483Z,27.79
2023-05-05T00:44:21.521Z,27.76
2023-05-05T00:45:21.577Z,27.82
2023-05-05T00:46:21.662Z,27.81
2023-05-05T00:47:21.717Z,27.76
2023-05-05T00:48:21.754Z,27.79
2023-05-05T00:49:21.832Z,27.81
2023-05-05T00:50:21.869Z,27.81
2023-05-05T00:51:21.897Z,27.79
2023-05-05T00:52:21.940Z,27.79
2023-05-05T00:53:21.996Z,27.78
2023-05-05T00:54:22.042Z,27.82
2023-05-05T00:55:22.066Z,27.80
2023-05-05T00:56:22.173Z,27.82
2023-05-05T00:57:22.164Z,27.80
2023-05-05T00:58:22.216Z,27.85
2023-05-05T00:59:22.245Z,27.84
2023-05-05T01:00:22.287Z,27.87
2023-05-05T01:01:22.370Z,27.84
2023-05-05T01:02:22.391Z,27.87
2023-05-05T01:03:22.530Z,27.86
2023-05-05T01:04:22.497Z,27.83
2023-05-05T01:05:22.527Z,27.91
2023-05-05T01:06:22.590Z,27.88
2023-05-05T01:07:22.671Z,27.90
2023-05-05T01:08:22.693Z,27.85
2023-05-05T01:09:22.774Z,27.87
2023-05-05T01:10:23.001Z,27.84
2023-05-05T01:11:22.834Z,27.91
2023-05-05T01:12:22.921Z,27.84
2023-05-05T01:13:22.929Z,27.87
2023-05-05T01:14:22.968Z,27.87
2023-05-05T01:15:23.038Z,27.91
2023-05-05T01:16:23.098Z,27.85
2023-05-05T01:17:23.180Z,27.84
2023-05-05T01:18:23.204Z,27.85
2023-05-05T01:19:23.269Z,27.85
2023-05-05T01:20:23.293Z,27.84
2023-05-05T01:21:23.386Z,27.84
2023-05-05T01:22:23.402Z,27.91
2023-05-05T01:23:23.440Z,27.87
2023-05-05T01:24:23.517Z,27.91
2023-05-05T01:25:23.569Z,27.92
2023-05-05T01:26:23.601Z,27.87
2023-05-05T01:27:23.637Z,27.91
2023-05-05T01:28:23.687Z,27.92
2023-05-05T01:29:23.749Z,27.91
2023-05-05T01:30:23.763Z,27.89
2023-05-05T01:31:23.891Z,27.89
2023-05-05T01:32:23.948Z,27.89
2023-05-05T01:33:23.981Z,27.91
2023-05-05T01:34:24.045Z,27.91
2023-05-05T01:35:24.100Z,27.96
2023-05-05T01:36:24.159Z,27.93
2023-05-05T01:37:24.226Z,27.89
2023-05-05T01:38:24.285Z,27.86
2023-05-05T01:39:24.314Z,27.93
2023-05-05T01:40:24.387Z,27.89
2023-05-05T01:41:24.446Z,27.92
2023-05-05T01:42:24.473Z,27.89
2023-05-05T01:43:24.538Z,27.96
2023-05-05T01:44:24.614Z,27.92
2023-05-05T01:45:24.640Z,27.90
2023-05-05T01:46:24.733Z,27.94
2023-05-05T01:47:24.824Z,27.97
2023-05-05T01:48:24.866Z,27.93
2023-05-05T01:49:24.889Z,27.97
2023-05-05T01:50:24.938Z,27.98
2023-05-05T01:51:24.994Z,27.94
2023-05-05T01:52:25.061Z,27.96
2023-05-05T01:53:25.120Z,27.98
2023-05-05T01:54:25.184Z,27.97
2023-05-05T01:55:25.230Z,28.01
2023-05-05T01:56:25.245Z,28.01
2023-05-05T01:57:25.338Z,27.99
2023-05-05T01:58:25.379Z,28.02
2023-05-05T01:59:25.385Z,28.02
2023-05-05T02:00:25.474Z,28.02
2023-05-05T02:01:25.576Z,27.99
2023-05-05T02:02:25.652Z,27.98
2023-05-05T02:03:25.646Z,28.02
2023-05-05T02:04:25.693Z,27.99
2023-05-05T02:05:25.743Z,28.01
2023-05-05T02:06:25.810Z,27.98
2023-05-05T02:07:25.849Z,27.99
2023-05-05T02:08:25.899Z,27.99
2023-05-05T02:09:25.936Z,27.97
2023-05-05T02:10:26.004Z,28.01
2023-05-05T02:11:26.090Z,28.01
2023-05-05T02:12:26.123Z,28.03
2023-05-05T02:13:26.267Z,28.01
2023-05-05T02:14:26.240Z,28.06
2023-05-05T02:15:26.321Z,28.04
2023-05-05T02:16:26.387Z,28.03
2023-05-05T02:17:26.478Z,28.06
2023-05-05T02:18:26.592Z,28.07
2023-05-05T02:19:26.579Z,28.03
2023-05-05T02:20:26.661Z,28.01
2023-05-05T02:21:26.715Z,28.01
2023-05-05T02:22:26.782Z,28.04
2023-05-05T02:23:26.838Z,28.03
2023-05-05T02:24:26.876Z,28.04
2023-05-05T02:25:26.953Z,28.03
2023-05-05T02:26:26.999Z,28.07
2023-05-05T02:27:27.067Z,28.03
2023-05-05T02:28:27.117Z,28.06
2023-05-05T02:29:27.196Z,28.10
2023-05-05T02:30:27.252Z,28.08
2023-05-05T02:31:27.458Z,28.07
2023-05-05T02:32:27.361Z,28.08
2023-05-05T02:33:27.430Z,28.11
2023-05-05T02:34:27.470Z,28.09
2023-05-05T02:35:27.511Z,28.09
2023-05-05T02:36:27.593Z,28.08
2023-05-05T02:37:27.663Z,28.05
2023-05-05T02:38:27.701Z,28.08
2023-05-05T02:39:27.785Z,28.12
2023-05-05T02:40:27.844Z,28.09
2023-05-05T02:41:27.928Z,28.08
2023-05-05T02:42:27.961Z,28.07
2023-05-05T02:43:28.030Z,28.07
2023-05-05T02:44:28.095Z,28.07
2023-05-05T02:45:28.123Z,28.07
2023-05-05T02:46:28.254Z,28.07
2023-05-05T02:47:28.290Z,28.07
2023-05-05T02:48:28.277Z,28.05
2023-05-05T02:49:28.319Z,28.08
2023-05-05T02:50:28.420Z,28.05
2023-05-05T02:51:28.456Z,28.07
2023-05-05T02:52:28.516Z,28.07
2023-05-05T02:53:28.611Z,28.09
2023-05-05T02:54:28.650Z,28.07
2023-05-05T02:55:28.716Z,28.07
2023-05-05T02:56:28.746Z,28.05
2023-05-05T02:57:28.775Z,28.07
2023-05-05T02:58:28.846Z,28.01
2023-05-05T02:59:28.900Z,28.01
2023-05-05T03:00:28.995Z,27.99
2023-05-05T03:01:29.055Z,27.99
2023-05-05T03:02:29.149Z,27.97
2023-05-05T03:03:29.231Z,27.96
2023-05-05T03:04:29.185Z,27.96
2023-05-05T03:05:29.275Z,27.94
2023-05-05T03:06:29.289Z,27.88
2023-05-05T03:07:29.343Z,27.89
2023-05-05T03:08:29.411Z,27.82
2023-05-05T03:09:29.445Z,27.85
2023-05-05T03:10:29.509Z,27.85
2023-05-05T03:11:29.575Z,27.79
2023-05-05T03:12:29.665Z,27.76
2023-05-05T03:13:29.618Z,27.80
2023-05-05T03:14:32.093Z,27.74
2023-05-05T03:15:29.727Z,27.73
2023-05-05T03:16:29.787Z,27.76
2023-05-05T03:17:29.826Z,27.69
2023-05-05T03:18:29.821Z,27.69
2023-05-05T03:19:29.836Z,27.63
2023-05-05T03:20:29.820Z,27.63
2023-05-05T03:21:29.856Z,27.67
2023-05-05T03:22:29.873Z,27.59
2023-05-05T03:23:30.001Z,27.63
2023-05-05T03:24:29.943Z,27.56
2023-05-05T03:25:29.975Z,27.52
2023-05-05T03:26:29.963Z,27.58
2023-05-05T03:27:29.970Z,27.51
2023-05-05T03:28:29.982Z,27.55
2023-05-05T03:29:30.046Z,27.51
2023-05-05T03:30:30.072Z,27.53
2023-05-05T03:31:30.083Z,27.47
2023-05-05T03:32:30.139Z,27.42
2023-05-05T03:33:31.095Z,27.48
2023-05-05T03:34:30.128Z,27.44
2023-05-05T03:35:30.143Z,27.44
2023-05-05T03:36:30.192Z,27.42
2023-05-05T03:37:30.216Z,27.44
2023-05-05T03:38:30.225Z,27.44
2023-05-05T03:39:30.255Z,27.44
2023-05-05T03:40:43.104Z,27.38
2023-05-05T03:41:31.305Z,27.38
2023-05-05T03:42:30.317Z,27.42
2023-05-05T03:43:30.321Z,27.41
2023-05-05T03:44:30.331Z,27.41
2023-05-05T03:45:30.416Z,27.41
2023-05-05T03:46:30.381Z,27.42
2023-05-05T03:47:30.385Z,27.41
2023-05-05T03:48:30.453Z,27.38
2023-05-05T03:49:30.425Z,27.44
2023-05-05T03:50:30.475Z,27.42
2023-05-05T03:51:30.469Z,27.44
2023-05-05T03:52:30.545Z,27.40
2023-05-05T03:53:30.553Z,27.41
2023-05-05T03:54:30.549Z,27.38
2023-05-05T03:55:30.586Z,27.38
2023-05-05T03:56:30.572Z,27.45
2023-05-05T03:57:30.633Z,27.41
2023-05-05T03:58:30.646Z,27.42
2023-05-05T03:59:30.718Z,27.45
2023-05-05T04:00:30.768Z,27.42
2023-05-05T04:01:30.783Z,27.44
2023-05-05T04:02:30.936Z,27.49
2023-05-05T04:03:31.136Z,27.45
2023-05-05T04:04:30.993Z,27.44
2023-05-05T04:05:31.013Z,27.45
2023-05-05T04:06:31.034Z,27.47
2023-05-05T04:07:31.092Z,27.49
2023-05-05T04:08:31.156Z,27.47
2023-05-05T04:09:31.154Z,27.49
2023-05-05T04:10:31.223Z,27.53
2023-05-05T04:11:31.266Z,27.51
2023-05-05T04:12:31.309Z,27.47
2023-05-05T04:13:31.376Z,27.50
2023-05-05T04:14:31.421Z,27.47
2023-05-05T04:15:31.454Z,27.50
2023-05-05T04:16:31.608Z,27.50
2023-05-05T04:17:31.557Z,27.50
2023-05-05T04:18:31.585Z,27.50
2023-05-05T04:19:31.609Z,27.52
2023-05-05T04:20:31.656Z,27.50
2023-05-05T04:21:31.719Z,27.49
2023-05-05T04:22:31.742Z,27.50
2023-05-05T04:23:31.822Z,27.54
2023-05-05T04:24:31.874Z,27.49
2023-05-05T04:25:31.900Z,27.53
2023-05-05T04:26:31.944Z,27.49
2023-05-05T04:27:31.951Z,27.52
2023-05-05T04:28:32.022Z,27.54
2023-05-05T04:29:32.127Z,27.47
2023-05-05T04:30:32.096Z,27.51
2023-05-05T04:31:32.200Z,27.52
2023-05-05T04:32:32.196Z,27.57
2023-05-05T04:33:32.231Z,27.54
2023-05-05T04:34:32.276Z,27.54
2023-05-05T04:35:32.296Z,27.47
2023-05-05T04:36:32.366Z,27.57
2023-05-05T04:37:32.401Z,27.57
2023-05-05T04:38:32.498Z,27.53
2023-05-05T04:39:32.515Z,27.55
2023-05-05T04:40:32.532Z,27.59
2023-05-05T04:41:32.617Z,27.58
2023-05-05T04:42:32.756Z,27.57
2023-05-05T04:43:32.740Z,27.58
2023-05-05T04:44:32.752Z,27.58
2023-05-05T04:45:32.768Z,27.54
2023-05-05T04:46:32.856Z,27.55
2023-05-05T04:47:32.980Z,27.61
2023-05-05T04:48:32.909Z,27.55
2023-05-05T04:49:32.938Z,27.59
2023-05-05T04:50:32.988Z,27.59
2023-05-05T04:51:33.011Z,27.63
2023-05-05T04:52:33.056Z,27.56
2023-05-05T04:53:33.119Z,27.62
2023-05-05T04:54:33.150Z,27.59
2023-05-05T04:55:33.177Z,27.60
2023-05-05T04:56:33.276Z,27.59
2023-05-05T04:57:33.324Z,27.60
2023-05-05T04:58:33.381Z,27.61
2023-05-05T04:59:33.388Z,27.62
2023-05-05T05:00:33.469Z,27.64
2023-05-05T05:01:40.658Z,27.62
2023-05-05T05:02:33.730Z,27.58
2023-05-05T05:03:33.716Z,27.58
2023-05-05T05:04:33.612Z,27.60
2023-05-05T05:05:33.615Z,27.62
2023-05-05T05:06:33.621Z,27.61
2023-05-05T05:07:33.661Z,27.63
2023-05-05T05:08:33.677Z,27.63
2023-05-05T05:09:34.735Z,27.63
2023-05-05T05:10:34.666Z,27.62
2023-05-05T05:11:33.745Z,27.60
2023-05-05T05:12:33.827Z,27.58
2023-05-05T05:13:33.818Z,27.64
2023-05-05T05:14:33.802Z,27.58
2023-05-05T05:15:33.824Z,27.63
2023-05-05T05:16:33.951Z,27.58
2023-05-05T05:17:33.923Z,27.61
2023-05-05T05:18:33.890Z,27.59
2023-05-05T05:19:33.901Z,27.61
2023-05-05T05:20:33.910Z,27.59
2023-05-05T05:21:33.966Z,27.58
2023-05-05T05:22:33.965Z,27.58
2023-05-05T05:23:33.993Z,27.62
2023-05-05T05:24:33.987Z,27.59
2023-05-05T05:25:34.062Z,27.61
2023-05-05T05:26:34.082Z,27.59
2023-05-05T05:27:34.163Z,27.63
2023-05-05T05:28:34.168Z,27.71
2023-05-05T05:29:34.159Z,27.87
2023-05-05T05:30:34.232Z,28.42
2023-05-05T05:31:34.320Z,28.75
2023-05-05T05:32:34.752Z,29.30
2023-05-05T05:33:34.332Z,29.53
2023-05-05T05:34:34.410Z,29.89
2023-05-05T05:35:34.451Z,30.23
2023-05-05T05:36:34.582Z,30.42
2023-05-05T05:37:34.608Z,30.93
2023-05-05T05:38:34.604Z,31.13
2023-05-05T05:39:34.648Z,31.54
2023-05-05T05:40:34.665Z,31.77
2023-05-05T05:41:34.696Z,31.93
2023-05-05T05:42:34.748Z,32.10
2023-05-05T05:43:34.808Z,31.99
2023-05-05T05:44:34.805Z,32.20
2023-05-05T05:45:34.889Z,32.28
2023-05-05T05:46:41.992Z,32.22
2023-05-05T05:47:35.217Z,32.44
2023-05-05T05:48:35.071Z,32.85
2023-05-05T05:49:35.126Z,32.94
2023-05-05T05:50:35.206Z,32.75
2023-05-05T05:51:35.185Z,32.78
2023-05-05T05:52:35.241Z,32.75
2023-05-05T05:53:35.342Z,32.86
2023-05-05T05:54:35.337Z,32.79
2023-05-05T05:55:35.375Z,32.75
2023-05-05T05:56:35.425Z,32.40
2023-05-05T05:57:35.475Z,32.21
2023-05-05T05:58:35.524Z,31.83
2023-05-05T05:59:35.545Z,31.75
2023-05-05T06:00:35.575Z,32.14
2023-05-05T06:01:35.641Z,31.88
2023-05-05T06:02:35.760Z,32.20
2023-05-05T06:03:35.879Z,32.43
2023-05-05T06:04:35.861Z,32.21
2023-05-05T06:05:35.805Z,32.44
2023-05-05T06:06:35.837Z,32.58
2023-05-05T06:07:35.886Z,32.66
2023-05-05T06:08:35.916Z,32.60
2023-05-05T06:09:36.001Z,32.39
2023-05-05T06:10:36.074Z,32.26
2023-05-05T06:11:36.020Z,31.91
2023-05-05T06:12:36.113Z,31.89
2023-05-05T06:13:36.132Z,31.72
2023-05-05T06:14:36.161Z,31.67
2023-05-05T06:15:36.198Z,31.77
2023-05-05T06:16:36.214Z,31.54
2023-05-05T06:17:36.243Z,31.55
2023-05-05T06:18:36.279Z,31.44
2023-05-05T06:19:36.308Z,31.41
2023-05-05T06:20:36.350Z,31.51
2023-05-05T06:21:36.370Z,31.48
2023-05-05T06:22:36.393Z,31.38
2023-05-05T06:23:36.449Z,31.44
2023-05-05T06:24:36.434Z,31.55
2023-05-05T06:25:36.464Z,31.56
2023-05-05T06:26:36.510Z,31.25
2023-05-05T06:27:36.535Z,31.00
2023-05-05T06:28:36.548Z,30.53
2023-05-05T06:29:36.603Z,30.21
2023-05-05T06:30:36.643Z,30.21
2023-05-05T06:31:36.767Z,30.40
2023-05-05T06:32:36.813Z,30.37
2023-05-05T06:33:36.821Z,30.43
2023-05-05T06:34:36.907Z,30.30
2023-05-05T06:35:36.996Z,30.15
2023-05-05T06:36:37.216Z,29.86
2023-05-05T06:37:37.127Z,30.39
2023-05-05T06:38:37.251Z,30.06
2023-05-05T06:39:37.316Z,30.22
2023-05-05T06:40:37.371Z,30.53
2023-05-05T06:41:37.455Z,30.80
2023-05-05T06:42:37.508Z,31.12
2023-05-05T06:43:37.508Z,31.45
2023-05-05T06:44:37.632Z,31.99
2023-05-05T06:45:37.642Z,31.46
2023-05-05T06:46:38.669Z,31.14
2023-05-05T06:47:37.878Z,31.36
2023-05-05T06:48:37.859Z,31.31
2023-05-05T06:49:37.906Z,31.16
2023-05-05T06:50:38.097Z,30.93
2023-05-05T06:51:38.061Z,30.71
2023-05-05T06:52:38.202Z,30.73
2023-05-05T06:53:38.206Z,30.83
2023-05-05T06:54:38.298Z,30.59
2023-05-05T06:55:38.372Z,30.70
2023-05-05T06:56:38.400Z,30.55
2023-05-05T06:57:38.742Z,30.56
2023-05-05T06:58:38.505Z,30.29
2023-05-05T06:59:38.590Z,30.24
2023-05-05T07:00:38.691Z,29.55
2023-05-05T07:01:38.665Z,29.43
2023-05-05T07:02:38.962Z,29.43
2023-05-05T07:03:38.885Z,29.38
2023-05-05T07:04:38.901Z,29.58
2023-05-05T07:05:38.967Z,30.01
2023-05-05T07:06:39.002Z,30.17
2023-05-05T07:07:39.057Z,29.86
2023-05-05T07:08:39.104Z,30.04
2023-05-05T07:09:39.182Z,29.84
2023-05-05T07:10:39.301Z,29.67
2023-05-05T07:11:39.244Z,29.97
2023-05-05T07:12:39.455Z,29.69
2023-05-05T07:13:39.328Z,29.77
2023-05-05T07:14:39.403Z,29.72
2023-05-05T07:15:39.451Z,29.59
2023-05-05T07:16:39.541Z,29.46
2023-05-05T07:17:39.653Z,29.48
2023-05-05T07:18:39.542Z,29.40
2023-05-05T07:19:39.590Z,29.33
2023-05-05T07:20:39.589Z,29.46
2023-05-05T07:21:39.708Z,29.48
2023-05-05T07:22:39.689Z,29.55
2023-05-05T07:23:39.745Z,29.53
2023-05-05T07:24:39.787Z,29.44
2023-05-05T07:25:39.833Z,29.41
2023-05-05T07:26:39.868Z,29.39
2023-05-05T07:27:39.864Z,29.42
2023-05-05T07:28:39.876Z,29.38
2023-05-05T07:29:39.993Z,29.25
2023-05-05T07:30:40.006Z,29.27
2023-05-05T07:31:40.046Z,29.25
2023-05-05T07:32:40.133Z,29.48
2023-05-05T07:33:40.251Z,30.03
2023-05-05T07:34:40.209Z,29.77
2023-05-05T07:35:40.235Z,29.10
2023-05-05T07:36:40.296Z,28.79
2023-05-05T07:37:40.385Z,28.51
2023-05-05T07:38:40.421Z,28.75
2023-05-05T07:39:40.464Z,28.73
2023-05-05T07:40:40.502Z,28.73
2023-05-05T07:41:40.574Z,28.80
2023-05-05T07:42:40.619Z,28.85
2023-05-05T07:43:41.715Z,28.88
2023-05-05T07:44:41.057Z,29.15
2023-05-05T07:45:41.151Z,29.34
2023-05-05T07:46:40.833Z,29.42
2023-05-05T07:47:40.903Z,29.48
2023-05-05T07:48:41.468Z,29.16
2023-05-05T07:49:41.173Z,29.23
2023-05-05T07:50:41.099Z,29.22
2023-05-05T07:51:41.127Z,28.94
2023-05-05T07:52:46.559Z,28.93
2023-05-05T07:53:42.211Z,29.12
2023-05-05T07:54:41.206Z,29.07
2023-05-05T07:55:41.231Z,28.98
2023-05-05T07:56:41.231Z,28.97
2023-05-05T07:57:41.245Z,28.97
2023-05-05T07:58:41.251Z,28.90
2023-05-05T07:59:41.230Z,28.88
2023-05-05T08:00:41.285Z,28.85
2023-05-05T08:01:41.286Z,28.72
2023-05-05T08:02:41.881Z,28.84
2023-05-05T08:03:41.523Z,28.75
2023-05-05T08:04:41.417Z,28.75
2023-05-05T08:05:41.494Z,28.67
2023-05-05T08:06:41.408Z,28.63
2023-05-05T08:07:41.791Z,28.84
2023-05-05T08:08:41.571Z,28.70
2023-05-05T08:09:41.583Z,28.92
2023-05-05T08:10:41.710Z,29.21
2023-05-05T08:11:41.650Z,29.34
2023-05-05T08:12:41.731Z,29.17
2023-05-05T08:13:41.766Z,28.91
2023-05-05T08:14:41.783Z,28.87
2023-05-05T08:15:41.867Z,28.77
2023-05-05T08:16:41.991Z,28.91
2023-05-05T08:17:41.932Z,29.02
2023-05-05T08:18:41.969Z,28.83
2023-05-05T08:19:42.032Z,28.98
2023-05-05T08:20:42.079Z,29.21
2023-05-05T08:21:42.174Z,29.11
2023-05-05T08:22:42.115Z,29.29
2023-05-05T08:23:42.148Z,29.36
2023-05-05T08:24:42.142Z,29.49
2023-05-05T08:25:42.190Z,29.35
2023-05-05T08:26:42.210Z,29.58
2023-05-05T08:27:42.300Z,29.66
2023-05-05T08:28:42.274Z,29.70
2023-05-05T08:29:42.309Z,29.88
2023-05-05T08:30:42.355Z,30.00
2023-05-05T08:31:42.377Z,30.06
2023-05-05T08:32:42.790Z,30.04
2023-05-05T08:33:42.449Z,30.08
2023-05-05T08:34:42.475Z,30.07
2023-05-05T08:35:42.467Z,30.03
2023-05-05T08:36:42.480Z,28.83
2023-05-05T08:37:43.042Z,29.15
2023-05-05T08:38:42.580Z,26.16
2023-05-05T08:39:42.674Z,26.12
2023-05-05T08:40:42.665Z,27.36
2023-05-05T08:41:42.741Z,27.59
2023-05-05T08:42:43.299Z,27.28
2023-05-05T08:43:42.848Z,26.77
2023-05-05T08:44:42.857Z,27.01
2023-05-05T08:45:42.910Z,26.28
2023-05-05T08:46:42.985Z,26.85
2023-05-05T08:47:43.123Z,27.05
2023-05-05T08:48:43.089Z,26.57
2023-05-05T08:49:43.154Z,26.70
2023-05-05T08:50:43.198Z,26.27
2023-05-05T08:51:43.228Z,26.97
2023-05-05T08:52:43.477Z,27.20
2023-05-05T08:53:43.881Z,27.28
2023-05-05T08:54:43.423Z,27.63
2023-05-05T08:55:43.474Z,27.63
2023-05-05T08:56:43.587Z,27.77
2023-05-05T08:57:43.581Z,28.19
2023-05-05T08:58:43.615Z,27.69
2023-05-05T08:59:43.663Z,28.02
2023-05-05T09:00:43.789Z,27.86
2023-05-05T09:01:43.788Z,27.99
2023-05-05T09:02:44.089Z,27.93
2023-05-05T09:03:43.890Z,28.46
2023-05-05T09:04:44.014Z,28.57
2023-05-05T09:05:44.003Z,28.57
2023-05-05T09:06:44.066Z,28.83
2023-05-05T09:07:44.252Z,28.97
2023-05-05T09:08:44.268Z,29.08
2023-05-05T09:09:44.262Z,29.16
2023-05-05T09:10:44.245Z,29.39
2023-05-05T09:11:44.257Z,29.66
2023-05-05T09:12:44.314Z,29.58
2023-05-05T09:13:45.312Z,29.67
2023-05-05T09:14:44.404Z,29.87
2023-05-05T09:15:44.420Z,29.75
2023-05-05T09:16:44.432Z,29.90
2023-05-05T09:17:44.585Z,30.19
2023-05-05T09:18:44.461Z,30.31
2023-05-05T09:19:44.542Z,30.31
2023-05-05T09:20:44.497Z,30.24
2023-05-05T09:21:45.287Z,30.21
2023-05-05T09:22:44.577Z,30.12
2023-05-05T09:23:44.554Z,30.19
2023-05-05T09:24:44.582Z,30.07
2023-05-05T09:25:44.710Z,29.99
2023-05-05T09:26:44.695Z,29.91
2023-05-05T09:27:44.594Z,29.99
2023-05-05T09:28:44.658Z,29.92
2023-05-05T09:29:44.695Z,29.86
2023-05-05T09:30:44.737Z,29.67
2023-05-05T09:31:44.737Z,29.44
2023-05-05T09:32:44.917Z,29.44
2023-05-05T09:33:44.816Z,29.70
2023-05-05T09:34:44.843Z,29.67
2023-05-05T09:35:44.801Z,29.63
2023-05-05T09:36:45.013Z,29.57
2023-05-05T09:37:45.211Z,29.85
2023-05-05T09:38:45.066Z,29.45
2023-05-05T09:39:44.893Z,28.80
2023-05-05T09:40:44.912Z,28.83
2023-05-05T09:41:44.980Z,29.01
2023-05-05T09:42:45.071Z,28.85
2023-05-05T09:43:45.307Z,29.15
2023-05-05T09:44:44.973Z,28.95
2023-05-05T09:45:45.013Z,29.53
2023-05-05T09:46:45.039Z,28.30
2023-05-05T09:47:45.052Z,28.38
2023-05-05T09:48:45.024Z,28.49
2023-05-05T09:49:45.071Z,28.47
2023-05-05T09:50:45.069Z,27.64
2023-05-05T09:51:45.123Z,28.04
2023-05-05T09:52:45.795Z,27.99
2023-05-05T09:53:45.709Z,28.09
2023-05-05T09:54:45.157Z,28.07
2023-05-05T09:55:45.184Z,28.14
2023-05-05T09:56:45.233Z,28.21
2023-05-05T09:57:45.424Z,28.05
2023-05-05T09:58:45.276Z,28.00
2023-05-05T09:59:45.313Z,27.89
2023-05-05T10:00:45.341Z,28.03
2023-05-05T10:01:45.398Z,27.82
2023-05-05T10:02:45.436Z,27.77
2023-05-05T10:03:45.402Z,27.92
2023-05-05T10:04:45.431Z,28.02
2023-05-05T10:05:45.444Z,28.14
2023-05-05T10:06:45.467Z,28.17
2023-05-05T10:07:45.449Z,28.18
2023-05-05T10:08:45.532Z,28.21
2023-05-05T10:09:45.503Z,27.86
2023-05-05T10:10:45.552Z,28.10
2023-05-05T10:11:45.588Z,28.35
2023-05-05T10:12:45.580Z,28.37
2023-05-05T10:13:45.780Z,28.26
2023-05-05T10:14:45.617Z,28.17
2023-05-05T10:15:45.713Z,28.54
2023-05-05T10:16:45.788Z,28.56
2023-05-05T10:17:57.842Z,27.70
2023-05-05T10:18:46.700Z,28.45
2023-05-05T10:19:45.646Z,28.48
2023-05-05T10:20:45.667Z,28.62
2023-05-05T10:21:45.657Z,28.70
2023-05-05T10:22:45.630Z,28.72
2023-05-05T10:23:45.643Z,28.64
2023-05-05T10:24:45.625Z,28.70
2023-05-05T10:25:45.606Z,28.78
2023-05-05T10:26:45.629Z,28.95
2023-05-05T10:27:45.622Z,28.94
2023-05-05T10:28:45.822Z,28.94
2023-05-05T10:29:45.630Z,28.82
2023-05-05T10:30:45.631Z,29.01
2023-05-05T10:31:45.635Z,28.92
2023-05-05T10:32:59.380Z,28.99
2023-05-05T10:33:46.782Z,29.13
2023-05-05T10:34:45.654Z,29.28
2023-05-05T10:35:45.623Z,29.20
2023-05-05T10:36:45.605Z,28.80
2023-05-05T10:37:45.641Z,28.35
2023-05-05T10:38:45.805Z,27.84
2023-05-05T10:39:45.616Z,28.07
2023-05-05T10:40:45.588Z,28.06
2023-05-05T10:41:45.596Z,28.09
2023-05-05T10:42:45.566Z,27.71
2023-05-05T10:43:45.806Z,27.63
2023-05-05T10:44:45.589Z,27.43
2023-05-05T10:45:45.685Z,27.23
2023-05-05T10:46:45.623Z,27.56
2023-05-05T10:47:45.600Z,27.38
2023-05-05T10:48:45.900Z,27.63
2023-05-05T10:49:45.573Z,27.48
2023-05-05T10:50:45.590Z,27.50
2023-05-05T10:51:45.560Z,27.32
2023-05-05T10:52:45.620Z,27.15
2023-05-05T10:53:45.665Z,27.34
2023-05-05T10:54:45.823Z,26.98
2023-05-05T10:55:45.664Z,26.95
2023-05-05T10:56:45.703Z,26.39
2023-05-05T10:57:45.719Z,26.28
2023-05-05T10:58:58.834Z,26.29
2023-05-05T10:59:46.747Z,26.33
2023-05-05T11:00:45.779Z,26.37
2023-05-05T11:01:45.734Z,26.45
2023-05-05T11:02:45.759Z,26.48
2023-05-05T11:03:45.855Z,26.21
2023-05-05T11:04:45.759Z,26.39
2023-05-05T11:05:45.749Z,26.16
2023-05-05T11:06:45.798Z,26.01
2023-05-05T11:07:45.806Z,26.19
2023-05-05T11:08:45.781Z,26.30
2023-05-05T11:09:45.786Z,26.47
2023-05-05T11:10:45.774Z,26.38
2023-05-05T11:11:45.805Z,26.48
2023-05-05T11:12:45.844Z,26.39
2023-05-05T11:13:45.756Z,26.40
2023-05-05T11:14:45.797Z,26.36
2023-05-05T11:15:45.774Z,26.36
2023-05-05T11:16:45.905Z,26.33
2023-05-05T11:17:45.844Z,26.18
2023-05-05T11:18:45.785Z,26.12
2023-05-05T11:19:45.820Z,26.11
2023-05-05T11:20:45.796Z,26.06
2023-05-05T11:21:45.833Z,26.03
2023-05-05T11:22:45.869Z,26.06
2023-05-05T11:23:45.893Z,25.90
2023-05-05T11:24:45.887Z,25.85
2023-05-05T11:25:45.952Z,25.83
2023-05-05T11:26:45.960Z,25.83
2023-05-05T11:27:46.028Z,25.83
2023-05-05T11:28:46.069Z,25.80
2023-05-05T11:29:46.081Z,25.76
2023-05-05T11:30:46.179Z,25.79
2023-05-05T11:31:46.181Z,25.76
2023-05-05T11:32:46.299Z,25.69
2023-05-05T11:33:46.308Z,25.63
2023-05-05T11:34:46.348Z,25.67
2023-05-05T11:35:46.324Z,25.68
2023-05-05T11:36:46.414Z,25.69
2023-05-05T11:37:46.515Z,25.66
2023-05-05T11:38:46.524Z,25.58
2023-05-05T11:39:46.623Z,25.54
2023-05-05T11:40:46.662Z,25.52
2023-05-05T11:41:46.723Z,25.57
2023-05-05T11:42:46.760Z,25.49
2023-05-05T11:43:46.789Z,25.47
2023-05-05T11:44:46.852Z,25.43
2023-05-05T11:45:46.879Z,25.33
2023-05-05T11:46:46.906Z,25.35
2023-05-05T11:47:47.008Z,25.42
2023-05-05T11:48:47.018Z,25.43
2023-05-05T11:49:47.285Z,25.42
2023-05-05T11:50:47.110Z,25.45
2023-05-05T11:51:47.147Z,25.43
2023-05-05T11:52:47.170Z,25.46
2023-05-05T11:53:47.210Z,25.38
2023-05-05T11:54:47.213Z,25.39
2023-05-05T11:55:47.251Z,25.31
2023-05-05T11:56:47.295Z,25.33
2023-05-05T11:57:47.338Z,25.38
2023-05-05T11:58:47.369Z,25.42
2023-05-05T11:59:49.409Z,25.39
2023-05-05T12:00:47.487Z,25.39
2023-05-05T12:01:47.498Z,25.39
2023-05-05T12:02:47.637Z,25.35
2023-05-05T12:03:47.660Z,25.35
2023-05-05T12:04:47.941Z,25.36
2023-05-05T12:05:47.662Z,25.43
2023-05-05T12:06:47.709Z,25.40
2023-05-05T12:07:47.710Z,25.43
2023-05-05T12:08:47.741Z,25.36
2023-05-05T12:09:47.797Z,25.31
2023-05-05T12:10:47.809Z,25.33
2023-05-05T12:11:47.844Z,25.30
2023-05-05T12:12:48.230Z,25.34
2023-05-05T12:13:47.903Z,25.28
2023-05-05T12:14:47.969Z,25.30
2023-05-05T12:15:47.985Z,25.22
2023-05-05T12:16:48.028Z,25.17
2023-05-05T12:17:48.079Z,25.07
2023-05-05T12:18:48.055Z,25.12
2023-05-05T12:19:48.110Z,25.05
2023-05-05T12:20:48.124Z,25.05
2023-05-05T12:21:48.187Z,24.98
2023-05-05T12:22:48.155Z,24.91
2023-05-05T12:23:48.208Z,24.86
2023-05-05T12:24:48.214Z,24.90
2023-05-05T12:25:48.397Z,24.90
2023-05-05T12:26:48.261Z,24.93
2023-05-05T12:27:48.247Z,24.98
2023-05-05T12:28:48.298Z,24.92
2023-05-05T12:29:48.326Z,24.88
2023-05-05T12:30:48.321Z,24.86
2023-05-05T12:31:48.360Z,24.71
2023-05-05T12:32:48.485Z,24.65
2023-05-05T12:33:48.434Z,24.48
2023-05-05T12:34:48.450Z,24.51
2023-05-05T12:35:48.453Z,24.59
2023-05-05T12:36:48.498Z,24.55
2023-05-05T12:37:48.592Z,24.18
2023-05-05T12:38:48.543Z,24.35
2023-05-05T12:39:48.549Z,24.43
2023-05-05T12:40:48.614Z,24.49
2023-05-05T12:41:48.626Z,24.74
2023-05-05T12:42:48.692Z,24.63
2023-05-05T12:43:48.612Z,24.55
2023-05-05T12:44:48.665Z,24.57
2023-05-05T12:45:48.758Z,24.66
2023-05-05T12:46:48.707Z,24.78
2023-05-05T12:47:48.776Z,24.84
2023-05-05T12:48:48.748Z,24.73
2023-05-05T12:49:48.748Z,24.72
2023-05-05T12:50:48.784Z,24.84
2023-05-05T12:51:48.792Z,24.99
2023-05-05T12:52:48.846Z,25.04